createdAt,value
2023-01-09T00:00:19.869Z,976.44
2023-01-09T00:01:19.810Z,976.45
2023-01-09T00:02:19.859Z,976.44
2023-01-09T00:03:19.777Z,976.47
2023-01-09T00:04:19.775Z,976.48
2023-01-09T00:05:19.757Z,976.45
2023-01-09T00:06:19.753Z,976.48
2023-01-09T00:07:19.730Z,976.55
2023-01-09T00:08:19.750Z,976.53
2023-01-09T00:09:19.701Z,976.53
2023-01-09T00:10:19.712Z,976.56
2023-01-09T00:11:19.674Z,976.51
2023-01-09T00:12:19.660Z,976.58
2023-01-09T00:13:19.645Z,976.48
2023-01-09T00:14:19.636Z,976.47
2023-01-09T00:15:19.620Z,976.46
2023-01-09T00:16:19.652Z,976.49
2023-01-09T00:17:19.592Z,976.50
2023-01-09T00:18:19.586Z,976.42
2023-01-09T00:19:19.564Z,976.50
2023-01-09T00:21:19.542Z,976.48
2023-01-09T00:22:19.533Z,976.42
2023-01-09T00:23:19.515Z,976.43
2023-01-09T00:24:19.503Z,976.45
2023-01-09T00:25:19.489Z,976.44
2023-01-09T00:26:19.502Z,976.41
2023-01-09T00:27:19.461Z,976.36
2023-01-09T00:28:19.451Z,976.39
2023-01-09T00:29:19.434Z,976.39
2023-01-09T00:30:19.425Z,976.35
2023-01-09T00:31:19.434Z,976.42
2023-01-09T00:32:19.398Z,976.39
2023-01-09T00:33:19.399Z,976.45
2023-01-09T00:34:19.375Z,976.37
2023-01-09T00:35:19.355Z,976.37
2023-01-09T00:36:19.346Z,976.40
2023-01-09T00:37:19.333Z,976.39
2023-01-09T00:38:19.322Z,976.43
2023-01-09T00:39:19.312Z,976.46
2023-01-09T00:40:19.311Z,976.40
2023-01-09T00:41:19.285Z,976.40
2023-01-09T00:42:19.324Z,976.40
2023-01-09T00:43:19.252Z,976.45
2023-01-09T00:44:19.241Z,976.37
2023-01-09T00:45:19.227Z,976.39
2023-01-09T00:46:19.370Z,976.41
2023-01-09T00:47:19.199Z,976.35
2023-01-09T00:48:19.188Z,976.28
2023-01-09T00:49:19.175Z,976.35
2023-01-09T00:50:19.164Z,976.36
2023-01-09T00:51:19.148Z,976.38
2023-01-09T00:52:19.141Z,976.29
2023-01-09T00:53:19.120Z,976.36
2023-01-09T00:54:19.123Z,976.29
2023-01-09T00:55:19.097Z,976.30
2023-01-09T00:56:19.086Z,976.50
2023-01-09T00:57:19.070Z,976.41
2023-01-09T00:58:19.084Z,976.47
2023-01-09T00:59:19.049Z,976.44
2023-01-09T01:00:19.038Z,976.42
2023-01-09T01:01:19.179Z,976.42
2023-01-09T01:02:19.288Z,976.52
2023-01-09T01:03:19.009Z,976.59
2023-01-09T01:04:18.997Z,976.56
2023-01-09T01:05:18.972Z,976.50
2023-01-09T01:06:18.962Z,976.58
2023-01-09T01:07:18.964Z,976.67
2023-01-09T01:08:18.956Z,976.59
2023-01-09T01:09:18.944Z,976.71
2023-01-09T01:10:18.915Z,976.68
2023-01-09T01:11:18.899Z,976.74
2023-01-09T01:12:18.895Z,976.76
2023-01-09T01:13:18.889Z,976.71
2023-01-09T01:14:18.896Z,976.68
2023-01-09T01:15:18.882Z,976.75
2023-01-09T01:16:18.884Z,976.69
2023-01-09T01:17:18.828Z,976.72
2023-01-09T01:18:18.816Z,976.65
2023-01-09T01:19:18.799Z,976.68
2023-01-09T01:20:18.787Z,976.65
2023-01-09T01:21:18.771Z,976.63
2023-01-09T01:22:18.761Z,976.68
2023-01-09T01:23:18.746Z,976.65
2023-01-09T01:24:18.736Z,976.65
2023-01-09T01:25:18.727Z,976.68
2023-01-09T01:26:18.711Z,976.68
2023-01-09T01:27:18.697Z,976.66
2023-01-09T01:28:18.686Z,976.66
2023-01-09T01:29:18.671Z,976.64
2023-01-09T01:30:18.683Z,976.61
2023-01-09T01:31:18.672Z,976.59
2023-01-09T01:32:18.637Z,976.66
2023-01-09T01:33:18.627Z,976.64
2023-01-09T01:34:18.607Z,976.58
2023-01-09T01:35:18.605Z,976.60
2023-01-09T01:36:18.585Z,976.59
2023-01-09T01:37:18.597Z,976.57
2023-01-09T01:38:18.563Z,976.59
2023-01-09T01:39:18.549Z,976.55
2023-01-09T01:40:18.541Z,976.53
2023-01-09T01:41:18.525Z,976.52
2023-01-09T01:42:18.544Z,976.58
2023-01-09T01:43:18.499Z,976.57
2023-01-09T01:44:18.493Z,976.54
2023-01-09T01:45:18.476Z,976.52
2023-01-09T01:46:18.574Z,976.48
2023-01-09T01:47:18.452Z,976.51
2023-01-09T01:48:18.449Z,976.51
2023-01-09T01:49:18.425Z,976.52
2023-01-09T01:50:18.412Z,976.56
2023-01-09T01:51:18.420Z,976.53
2023-01-09T01:52:18.386Z,976.57
2023-01-09T01:53:18.373Z,976.58
2023-01-09T01:54:18.359Z,976.63
2023-01-09T01:55:18.348Z,976.67
2023-01-09T01:56:18.353Z,976.62
2023-01-09T01:57:18.323Z,976.71
2023-01-09T01:58:18.308Z,976.72
2023-01-09T01:59:18.300Z,976.71
2023-01-09T02:00:18.282Z,976.73
2023-01-09T02:01:18.402Z,976.66
2023-01-09T02:02:18.432Z,976.64
2023-01-09T02:03:18.248Z,976.67
2023-01-09T02:04:18.235Z,976.61
2023-01-09T02:05:18.221Z,976.61
2023-01-09T02:06:18.207Z,976.57
2023-01-09T02:07:18.201Z,976.56
2023-01-09T02:08:18.186Z,976.60
2023-01-09T02:09:18.185Z,976.61
2023-01-09T02:10:18.159Z,976.67
2023-01-09T02:11:18.145Z,976.72
2023-01-09T02:12:18.233Z,976.65
2023-01-09T02:13:18.120Z,976.67
2023-01-09T02:14:18.108Z,976.67
2023-01-09T02:15:18.097Z,976.64
2023-01-09T02:16:18.124Z,976.72
2023-01-09T02:17:18.073Z,976.72
2023-01-09T02:18:18.085Z,976.71
2023-01-09T02:19:18.049Z,976.73
2023-01-09T02:20:18.034Z,976.72
2023-01-09T02:21:18.020Z,976.71
2023-01-09T02:22:18.005Z,976.73
2023-01-09T02:23:17.997Z,976.70
2023-01-09T02:24:17.979Z,976.71
2023-01-09T02:25:17.969Z,976.70
2023-01-09T02:26:17.953Z,976.71
2023-01-09T02:27:17.943Z,976.71
2023-01-09T02:28:17.925Z,976.80
2023-01-09T02:29:17.916Z,976.74
2023-01-09T02:30:17.903Z,976.71
2023-01-09T02:31:17.894Z,976.75
2023-01-09T02:32:17.877Z,976.79
2023-01-09T02:33:17.865Z,976.78
2023-01-09T02:34:17.883Z,976.80
2023-01-09T02:35:17.839Z,976.79
2023-01-09T02:36:17.826Z,976.82
2023-01-09T02:37:17.812Z,976.77
2023-01-09T02:38:17.801Z,976.81
2023-01-09T02:39:17.796Z,976.87
2023-01-09T02:40:17.775Z,976.78
2023-01-09T02:41:17.773Z,976.80
2023-01-09T02:42:17.750Z,976.77
2023-01-09T02:43:17.745Z,976.77
2023-01-09T02:44:17.738Z,976.76
2023-01-09T02:45:17.728Z,976.76
2023-01-09T02:46:17.702Z,976.78
2023-01-09T02:47:17.705Z,976.84
2023-01-09T02:48:17.684Z,976.72
2023-01-09T02:49:17.663Z,976.76
2023-01-09T02:50:17.684Z,976.65
2023-01-09T02:51:17.638Z,976.63
2023-01-09T02:52:17.624Z,976.72
2023-01-09T02:53:17.612Z,976.63
2023-01-09T02:54:17.598Z,976.62
2023-01-09T02:55:17.592Z,976.57
2023-01-09T02:56:17.572Z,976.62
2023-01-09T02:57:17.581Z,976.60
2023-01-09T02:58:17.546Z,976.59
2023-01-09T02:59:17.540Z,976.62
2023-01-09T03:00:17.519Z,976.67
2023-01-09T03:01:17.646Z,976.67
2023-01-09T03:02:17.497Z,976.66
2023-01-09T03:03:17.487Z,976.71
2023-01-09T03:04:17.471Z,976.73
2023-01-09T03:05:17.458Z,976.82
2023-01-09T03:06:17.470Z,976.86
2023-01-09T03:07:17.435Z,976.89
2023-01-09T03:08:17.425Z,976.83
2023-01-09T03:09:17.417Z,976.88
2023-01-09T03:10:17.411Z,976.96
2023-01-09T03:11:17.393Z,976.98
2023-01-09T03:12:17.377Z,977.07
2023-01-09T03:13:17.357Z,977.04
2023-01-09T03:14:17.357Z,977.16
2023-01-09T03:15:17.334Z,977.15
2023-01-09T03:16:17.352Z,977.16
2023-01-09T03:17:17.308Z,977.26
2023-01-09T03:18:17.295Z,977.29
2023-01-09T03:19:17.285Z,977.20
2023-01-09T03:20:17.267Z,977.25
2023-01-09T03:21:17.274Z,977.28
2023-01-09T03:22:17.269Z,977.26
2023-01-09T03:23:17.240Z,977.22
2023-01-09T03:24:17.219Z,977.34
2023-01-09T03:25:17.209Z,977.30
2023-01-09T03:26:17.197Z,977.36
2023-01-09T03:27:17.187Z,977.39
2023-01-09T03:28:17.172Z,977.37
2023-01-09T03:29:17.162Z,977.31
2023-01-09T03:30:17.152Z,977.39
2023-01-09T03:31:17.178Z,977.36
2023-01-09T03:32:17.124Z,977.41
2023-01-09T03:33:17.110Z,977.42
2023-01-09T03:34:17.107Z,977.48
2023-01-09T03:35:17.096Z,977.45
2023-01-09T03:36:17.074Z,977.51
2023-01-09T03:37:17.075Z,977.55
2023-01-09T03:38:17.086Z,977.58
2023-01-09T03:39:17.045Z,977.53
2023-01-09T03:40:17.028Z,977.53
2023-01-09T03:41:17.022Z,977.54
2023-01-09T03:42:16.998Z,977.52
2023-01-09T03:43:16.987Z,977.55
2023-01-09T03:44:16.973Z,977.57
2023-01-09T03:45:16.960Z,977.50
2023-01-09T03:46:16.947Z,977.50
2023-01-09T03:47:16.936Z,977.59
2023-01-09T03:48:16.937Z,977.58
2023-01-09T03:49:16.916Z,977.54
2023-01-09T03:50:16.895Z,977.52
2023-01-09T03:51:16.885Z,977.62
2023-01-09T03:52:16.871Z,977.66
2023-01-09T03:53:16.862Z,977.65
2023-01-09T03:54:16.882Z,977.61
2023-01-09T03:55:16.843Z,977.60
2023-01-09T03:56:16.822Z,977.64
2023-01-09T03:57:16.812Z,977.70
2023-01-09T03:58:16.802Z,977.67
2023-01-09T03:59:16.787Z,977.65
2023-01-09T04:00:16.771Z,977.65
2023-01-09T04:01:16.877Z,977.69
2023-01-09T04:02:16.912Z,977.71
2023-01-09T04:03:16.741Z,977.86
2023-01-09T04:04:16.722Z,977.84
2023-01-09T04:05:16.710Z,977.71
2023-01-09T04:06:16.716Z,977.75
2023-01-09T04:07:16.690Z,977.74
2023-01-09T04:08:16.677Z,977.74
2023-01-09T04:09:16.663Z,977.77
2023-01-09T04:10:16.671Z,977.91
2023-01-09T04:11:16.637Z,977.81
2023-01-09T04:12:16.621Z,977.82
2023-01-09T04:13:16.611Z,977.74
2023-01-09T04:14:16.597Z,977.87
2023-01-09T04:15:16.596Z,977.90
2023-01-09T04:16:16.611Z,977.89
2023-01-09T04:17:16.563Z,977.97
2023-01-09T04:18:16.556Z,977.93
2023-01-09T04:19:16.537Z,978.01
2023-01-09T04:20:16.527Z,978.01
2023-01-09T04:21:16.537Z,978.03
2023-01-09T04:22:16.499Z,978.01
2023-01-09T04:24:16.475Z,977.99
2023-01-09T04:25:16.465Z,977.98
2023-01-09T04:26:16.476Z,978.00
2023-01-09T04:27:16.439Z,978.01
2023-01-09T04:28:16.426Z,977.99
2023-01-09T04:29:16.416Z,977.98
2023-01-09T04:30:16.396Z,978.02
2023-01-09T04:31:16.425Z,977.92
2023-01-09T04:32:16.375Z,978.00
2023-01-09T04:33:16.360Z,978.02
2023-01-09T04:34:16.345Z,977.98
2023-01-09T04:35:16.342Z,977.99
2023-01-09T04:36:16.323Z,977.99
2023-01-09T04:37:16.311Z,978.01
2023-01-09T04:38:16.313Z,978.11
2023-01-09T04:39:16.283Z,978.12
2023-01-09T04:40:16.269Z,978.15
2023-01-09T04:41:16.259Z,978.14
2023-01-09T04:42:16.277Z,978.16
2023-01-09T04:43:16.232Z,978.21
2023-01-09T04:44:16.220Z,978.22
2023-01-09T04:45:16.216Z,978.19
2023-01-09T04:46:16.275Z,978.25
2023-01-09T04:47:16.189Z,978.27
2023-01-09T04:48:16.170Z,978.30
2023-01-09T04:49:16.194Z,978.34
2023-01-09T04:50:16.149Z,978.28
2023-01-09T04:51:16.132Z,978.35
2023-01-09T04:52:16.116Z,978.31
2023-01-09T04:53:16.108Z,978.39
2023-01-09T04:54:16.092Z,978.32
2023-01-09T04:55:16.092Z,978.37
2023-01-09T04:56:16.077Z,978.40
2023-01-09T04:57:16.083Z,978.39
2023-01-09T04:58:16.063Z,978.37
2023-01-09T04:59:16.041Z,978.44
2023-01-09T05:00:16.022Z,978.42
2023-01-09T05:01:16.161Z,978.41
2023-01-09T05:02:16.113Z,978.41
2023-01-09T05:03:15.980Z,978.44
2023-01-09T05:04:16.050Z,978.53
2023-01-09T05:05:15.952Z,978.49
2023-01-09T05:06:15.937Z,978.44
2023-01-09T05:07:15.931Z,978.46
2023-01-09T05:08:15.915Z,978.43
2023-01-09T05:09:15.905Z,978.44
2023-01-09T05:10:15.886Z,978.36
2023-01-09T05:11:15.875Z,978.38
2023-01-09T05:12:15.861Z,978.38
2023-01-09T05:13:15.853Z,978.37
2023-01-09T05:14:15.872Z,978.44
2023-01-09T05:15:15.825Z,978.45
2023-01-09T05:16:15.852Z,978.48
2023-01-09T05:17:15.799Z,978.45
2023-01-09T05:18:15.784Z,978.51
2023-01-09T05:19:15.774Z,978.58
2023-01-09T05:20:15.762Z,978.48
2023-01-09T05:21:15.751Z,978.52
2023-01-09T05:22:15.735Z,978.61
2023-01-09T05:23:15.724Z,978.53
2023-01-09T05:24:15.728Z,978.68
2023-01-09T05:25:15.699Z,978.71
2023-01-09T05:26:15.690Z,978.75
2023-01-09T05:27:15.674Z,978.69
2023-01-09T05:28:15.659Z,978.74
2023-01-09T05:29:15.650Z,978.80
2023-01-09T05:30:18.097Z,978.79
2023-01-09T05:31:15.732Z,978.72
2023-01-09T05:32:15.609Z,978.81
2023-01-09T05:33:15.596Z,978.76
2023-01-09T05:34:15.591Z,978.82
2023-01-09T05:35:15.571Z,978.85
2023-01-09T05:36:15.560Z,978.85
2023-01-09T05:37:15.544Z,978.86
2023-01-09T05:38:15.534Z,978.88
2023-01-09T05:39:15.518Z,978.89
2023-01-09T05:40:15.508Z,978.96
2023-01-09T05:41:15.494Z,978.95
2023-01-09T05:42:15.481Z,979.01
2023-01-09T05:43:15.472Z,978.99
2023-01-09T05:44:15.455Z,979.05
2023-01-09T05:45:15.449Z,979.00
2023-01-09T05:46:15.459Z,979.01
2023-01-09T05:47:15.417Z,979.07
2023-01-09T05:48:15.405Z,979.04
2023-01-09T05:49:15.397Z,978.96
2023-01-09T05:50:15.377Z,978.95
2023-01-09T05:51:15.360Z,979.01
2023-01-09T05:52:15.350Z,978.98
2023-01-09T05:53:15.347Z,978.94
2023-01-09T05:54:15.329Z,978.98
2023-01-09T05:55:15.324Z,978.95
2023-01-09T05:56:15.297Z,978.90
2023-01-09T05:57:15.284Z,979.00
2023-01-09T05:58:15.280Z,978.88
2023-01-09T05:59:15.270Z,978.97
2023-01-09T06:00:15.251Z,978.93
2023-01-09T06:01:15.394Z,978.91
2023-01-09T06:02:15.372Z,978.96
2023-01-09T06:03:15.324Z,978.90
2023-01-09T06:04:15.208Z,978.94
2023-01-09T06:05:15.188Z,978.80
2023-01-09T06:06:15.170Z,978.96
2023-01-09T06:07:19.897Z,979.03
2023-01-09T06:08:15.148Z,978.99
2023-01-09T06:09:15.150Z,979.00
2023-01-09T06:10:15.118Z,979.02
2023-01-09T06:11:15.109Z,979.00
2023-01-09T06:12:15.097Z,979.02
2023-01-09T06:13:15.093Z,978.99
2023-01-09T06:14:15.066Z,978.98
2023-01-09T06:15:15.061Z,978.93
2023-01-09T06:16:15.097Z,979.04
2023-01-09T06:17:15.028Z,979.05
2023-01-09T06:18:15.054Z,979.05
2023-01-09T06:19:14.999Z,979.06
2023-01-09T06:20:14.991Z,979.10
2023-01-09T06:21:14.977Z,979.05
2023-01-09T06:22:14.964Z,979.15
2023-01-09T06:23:14.949Z,979.14
2023-01-09T06:24:14.943Z,979.15
2023-01-09T06:25:14.929Z,979.18
2023-01-09T06:26:14.911Z,979.18
2023-01-09T06:27:14.899Z,979.25
2023-01-09T06:28:14.884Z,979.24
2023-01-09T06:29:14.871Z,979.29
2023-01-09T06:30:14.861Z,979.32
2023-01-09T06:31:14.973Z,979.25
2023-01-09T06:32:14.839Z,979.35
2023-01-09T06:33:14.820Z,979.31
2023-01-09T06:34:14.835Z,979.33
2023-01-09T06:35:14.799Z,979.34
2023-01-09T06:36:14.784Z,979.35
2023-01-09T06:37:14.772Z,979.33
2023-01-09T06:38:14.769Z,979.30
2023-01-09T06:39:14.759Z,979.31
2023-01-09T06:40:14.755Z,979.35
2023-01-09T06:41:14.752Z,979.33
2023-01-09T06:42:14.706Z,979.40
2023-01-09T06:43:14.692Z,979.40
2023-01-09T06:44:14.681Z,979.45
2023-01-09T06:45:14.666Z,979.43
2023-01-09T06:46:14.711Z,979.47
2023-01-09T06:47:14.642Z,979.47
2023-01-09T06:48:14.633Z,979.44
2023-01-09T06:49:14.616Z,979.46
2023-01-09T06:50:14.628Z,979.46
2023-01-09T06:51:14.591Z,979.46
2023-01-09T06:52:14.579Z,979.45
2023-01-09T06:53:14.568Z,979.48
2023-01-09T06:54:14.558Z,979.46
2023-01-09T06:55:14.544Z,979.51
2023-01-09T06:56:14.528Z,979.48
2023-01-09T06:57:14.519Z,979.48
2023-01-09T06:58:14.505Z,979.57
2023-01-09T06:59:14.495Z,979.55
2023-01-09T07:00:14.544Z,979.54
2023-01-09T07:01:14.591Z,979.59
2023-01-09T07:02:14.503Z,979.55
2023-01-09T07:03:14.440Z,979.54
2023-01-09T07:04:14.481Z,979.59
2023-01-09T07:05:14.428Z,979.57
2023-01-09T07:06:14.428Z,979.62
2023-01-09T07:07:14.391Z,979.62
2023-01-09T07:08:14.379Z,979.62
2023-01-09T07:09:14.375Z,979.68
2023-01-09T07:10:14.367Z,979.69
2023-01-09T07:11:14.341Z,979.68
2023-01-09T07:12:14.331Z,979.73
2023-01-09T07:13:14.318Z,979.71
2023-01-09T07:14:14.303Z,979.81
2023-01-09T07:15:14.291Z,979.83
2023-01-09T07:16:14.353Z,979.75
2023-01-09T07:17:14.277Z,979.71
2023-01-09T07:18:14.263Z,979.74
2023-01-09T07:19:14.240Z,979.74
2023-01-09T07:20:14.245Z,979.76
2023-01-09T07:21:14.231Z,979.75
2023-01-09T07:22:14.329Z,979.75
2023-01-09T07:23:14.198Z,979.82
2023-01-09T07:24:14.178Z,979.79
2023-01-09T07:25:14.164Z,979.80
2023-01-09T07:26:14.164Z,979.79
2023-01-09T07:27:14.150Z,979.78
2023-01-09T07:28:14.129Z,979.81
2023-01-09T07:29:14.129Z,979.86
2023-01-09T07:30:14.112Z,979.86
2023-01-09T07:31:14.096Z,979.87
2023-01-09T07:32:14.080Z,979.92
2023-01-09T07:33:14.073Z,979.86
2023-01-09T07:34:14.055Z,979.90
2023-01-09T07:35:14.042Z,979.93
2023-01-09T07:36:14.029Z,979.95
2023-01-09T07:37:14.016Z,979.98
2023-01-09T07:38:14.035Z,980.01
2023-01-09T07:39:13.992Z,980.10
2023-01-09T07:40:13.980Z,980.09
2023-01-09T07:41:13.972Z,980.08
2023-01-09T07:42:13.957Z,980.14
2023-01-09T07:43:13.942Z,980.11
2023-01-09T07:44:13.930Z,980.12
2023-01-09T07:45:13.916Z,980.18
2023-01-09T07:46:13.945Z,980.13
2023-01-09T07:47:13.893Z,980.18
2023-01-09T07:48:13.891Z,980.12
2023-01-09T07:49:13.867Z,980.20
2023-01-09T07:50:13.855Z,980.17
2023-01-09T07:51:13.845Z,980.15
2023-01-09T07:52:13.835Z,980.20
2023-01-09T07:53:13.817Z,980.16
2023-01-09T07:54:13.841Z,980.23
2023-01-09T07:55:15.590Z,980.29
2023-01-09T07:56:13.780Z,980.22
2023-01-09T07:57:13.804Z,980.18
2023-01-09T07:58:13.758Z,980.26
2023-01-09T07:59:13.742Z,980.17
2023-01-09T08:00:13.738Z,980.20
2023-01-09T08:01:13.776Z,980.20
2023-01-09T08:02:13.822Z,980.25
2023-01-09T08:03:13.689Z,980.23
2023-01-09T08:04:13.690Z,980.30
2023-01-09T08:05:13.667Z,980.28
2023-01-09T08:06:13.656Z,980.24
2023-01-09T08:07:13.644Z,980.22
2023-01-09T08:08:13.679Z,980.18
2023-01-09T08:09:13.616Z,980.17
2023-01-09T08:10:13.644Z,980.19
2023-01-09T08:11:13.598Z,980.23
2023-01-09T08:12:13.581Z,980.28
2023-01-09T08:13:13.586Z,980.25
2023-01-09T08:14:13.556Z,980.22
2023-01-09T08:15:13.555Z,980.22
2023-01-09T08:16:13.581Z,980.18
2023-01-09T08:17:13.523Z,980.21
2023-01-09T08:18:13.511Z,980.22
2023-01-09T08:19:13.495Z,980.24
2023-01-09T08:20:13.490Z,980.26
2023-01-09T08:21:13.468Z,980.18
2023-01-09T08:22:13.456Z,980.46
2023-01-09T08:23:13.459Z,980.20
2023-01-09T08:24:13.474Z,980.25
2023-01-09T08:25:13.429Z,980.39
2023-01-09T08:26:13.433Z,980.23
2023-01-09T08:27:13.390Z,980.26
2023-01-09T08:28:13.382Z,980.16
2023-01-09T08:29:13.363Z,980.20
2023-01-09T08:30:13.351Z,980.21
2023-01-09T08:31:13.477Z,980.22
2023-01-09T08:32:13.326Z,980.28
2023-01-09T08:33:13.317Z,980.19
2023-01-09T08:34:13.304Z,980.27
2023-01-09T08:35:13.286Z,980.28
2023-01-09T08:36:13.281Z,980.32
2023-01-09T08:37:13.260Z,980.30
2023-01-09T08:38:13.255Z,980.34
2023-01-09T08:39:13.235Z,980.33
2023-01-09T08:40:13.241Z,980.30
2023-01-09T08:41:13.210Z,980.44
2023-01-09T08:42:13.222Z,980.40
2023-01-09T08:43:13.190Z,980.36
2023-01-09T08:44:13.174Z,980.42
2023-01-09T08:45:13.189Z,980.46
2023-01-09T08:46:13.204Z,980.52
2023-01-09T08:47:13.132Z,980.39
2023-01-09T08:48:13.121Z,980.44
2023-01-09T08:49:13.111Z,980.50
2023-01-09T08:50:13.096Z,980.39
2023-01-09T08:51:13.086Z,980.44
2023-01-09T08:52:13.070Z,980.43
2023-01-09T08:53:13.069Z,980.37
2023-01-09T08:54:13.043Z,980.32
2023-01-09T08:55:13.034Z,980.40
2023-01-09T08:56:13.022Z,980.31
2023-01-09T08:57:13.005Z,980.29
2023-01-09T08:58:13.068Z,980.30
2023-01-09T08:59:12.980Z,980.32
2023-01-09T09:00:12.970Z,980.30
2023-01-09T09:01:13.017Z,980.34
2023-01-09T09:02:12.941Z,980.40
2023-01-09T09:03:12.922Z,980.39
2023-01-09T09:04:12.919Z,980.41
2023-01-09T09:05:12.902Z,980.39
2023-01-09T09:06:12.893Z,980.36
2023-01-09T09:07:12.873Z,980.44
2023-01-09T09:08:12.860Z,980.42
2023-01-09T09:09:12.859Z,980.44
2023-01-09T09:10:12.837Z,980.45
2023-01-09T09:11:12.821Z,980.40
2023-01-09T09:12:12.811Z,980.46
2023-01-09T09:13:12.810Z,980.41
2023-01-09T09:14:12.837Z,980.44
2023-01-09T09:15:12.771Z,980.39
2023-01-09T09:16:12.814Z,980.39
2023-01-09T09:17:12.743Z,980.39
2023-01-09T09:18:12.731Z,980.60
2023-01-09T09:19:12.716Z,980.52
2023-01-09T09:20:12.706Z,980.26
2023-01-09T09:21:12.697Z,980.27
2023-01-09T09:22:12.681Z,980.25
2023-01-09T09:23:12.665Z,980.28
2023-01-09T09:24:12.655Z,980.30
2023-01-09T09:25:12.649Z,980.31
2023-01-09T09:26:12.633Z,980.44
2023-01-09T09:27:12.622Z,980.36
2023-01-09T09:28:12.605Z,980.36
2023-01-09T09:29:12.592Z,980.26
2023-01-09T09:30:12.609Z,980.38
2023-01-09T09:31:12.612Z,980.33
2023-01-09T09:32:12.552Z,980.37
2023-01-09T09:33:12.538Z,980.36
2023-01-09T09:34:12.525Z,980.42
2023-01-09T09:35:12.536Z,980.45
2023-01-09T09:36:12.509Z,980.41
2023-01-09T09:37:12.594Z,980.41
2023-01-09T09:38:12.475Z,980.45
2023-01-09T09:39:12.468Z,980.49
2023-01-09T09:40:18.312Z,980.40
2023-01-09T09:41:12.435Z,980.42
2023-01-09T09:42:12.425Z,980.45
2023-01-09T09:43:12.410Z,980.50
2023-01-09T09:44:12.395Z,980.50
2023-01-09T09:45:12.381Z,980.54
2023-01-09T09:46:12.483Z,980.60
2023-01-09T09:47:12.355Z,980.67
2023-01-09T09:48:12.345Z,980.69
2023-01-09T09:49:12.333Z,980.67
2023-01-09T09:50:12.316Z,980.65
2023-01-09T09:51:12.308Z,980.64
2023-01-09T09:52:12.299Z,980.62
2023-01-09T09:53:12.277Z,980.70
2023-01-09T09:54:13.916Z,980.61
2023-01-09T09:55:12.254Z,980.67
2023-01-09T09:56:12.259Z,980.67
2023-01-09T09:57:12.223Z,980.69
2023-01-09T09:58:12.215Z,980.71
2023-01-09T09:59:12.196Z,980.70
2023-01-09T10:00:12.182Z,980.74
2023-01-09T10:01:12.172Z,980.67
2023-01-09T10:02:12.235Z,980.66
2023-01-09T10:03:12.435Z,980.57
2023-01-09T10:04:12.135Z,980.60
2023-01-09T10:05:12.116Z,980.65
2023-01-09T10:06:12.102Z,980.60
2023-01-09T10:07:12.089Z,980.61
2023-01-09T10:08:15.998Z,980.55
2023-01-09T10:09:12.063Z,980.56
2023-01-09T10:10:12.048Z,980.69
2023-01-09T10:11:12.037Z,980.58
2023-01-09T10:12:12.023Z,980.60
2023-01-09T10:13:12.027Z,980.67
2023-01-09T10:14:23.174Z,980.70
2023-01-09T10:15:13.988Z,980.64
2023-01-09T10:16:12.019Z,980.67
2023-01-09T10:17:11.958Z,980.71
2023-01-09T10:18:11.974Z,980.58
2023-01-09T10:19:11.931Z,980.58
2023-01-09T10:20:11.914Z,980.55
2023-01-09T10:21:11.911Z,980.51
2023-01-09T10:22:11.890Z,980.57
2023-01-09T10:23:11.880Z,980.51
2023-01-09T10:24:11.864Z,980.50
2023-01-09T10:25:11.850Z,980.58
2023-01-09T10:26:11.842Z,980.60
2023-01-09T10:27:11.824Z,980.61
2023-01-09T10:28:11.808Z,980.55
2023-01-09T10:29:11.802Z,980.62
2023-01-09T10:30:11.781Z,980.57
2023-01-09T10:31:11.811Z,980.50
2023-01-09T10:32:11.757Z,980.58
2023-01-09T10:33:11.744Z,980.61
2023-01-09T10:34:11.791Z,980.55
2023-01-09T10:35:11.723Z,980.65
2023-01-09T10:36:11.705Z,980.57
2023-01-09T10:37:11.713Z,980.58
2023-01-09T10:38:11.679Z,980.57
2023-01-09T10:39:11.665Z,980.61
2023-01-09T10:40:11.653Z,980.57
2023-01-09T10:41:11.636Z,980.57
2023-01-09T10:42:11.624Z,980.64
2023-01-09T10:43:11.610Z,980.62
2023-01-09T10:44:11.614Z,980.66
2023-01-09T10:45:11.584Z,980.55
2023-01-09T10:46:11.607Z,980.53
2023-01-09T10:47:11.559Z,980.55
2023-01-09T10:48:11.542Z,980.65
2023-01-09T10:49:11.531Z,980.65
2023-01-09T10:50:11.543Z,980.64
2023-01-09T10:51:11.503Z,980.67
2023-01-09T10:52:11.491Z,980.60
2023-01-09T10:53:11.475Z,980.67
2023-01-09T10:54:11.472Z,980.60
2023-01-09T10:55:11.449Z,980.59
2023-01-09T10:56:11.435Z,980.55
2023-01-09T10:57:11.423Z,980.65
2023-01-09T10:58:11.412Z,980.61
2023-01-09T10:59:11.405Z,980.68
2023-01-09T11:00:11.384Z,980.71
2023-01-09T11:01:11.370Z,980.72
2023-01-09T11:02:11.390Z,980.67
2023-01-09T11:03:11.399Z,980.73
2023-01-09T11:04:11.331Z,980.70
2023-01-09T11:05:11.316Z,980.72
2023-01-09T11:06:11.324Z,980.68
2023-01-09T11:07:11.295Z,980.74
2023-01-09T11:08:11.277Z,980.73
2023-01-09T11:09:11.270Z,980.72
2023-01-09T11:10:11.253Z,980.66
2023-01-09T11:11:11.236Z,980.72
2023-01-09T11:12:11.224Z,980.80
2023-01-09T11:13:11.209Z,980.80
2023-01-09T11:14:11.195Z,980.85
2023-01-09T11:15:11.188Z,980.80
2023-01-09T11:16:11.269Z,980.77
2023-01-09T11:17:11.155Z,980.82
2023-01-09T11:18:11.141Z,980.85
2023-01-09T11:19:11.129Z,980.86
2023-01-09T11:20:13.494Z,980.84
2023-01-09T11:21:11.105Z,980.85
2023-01-09T11:22:11.121Z,980.82
2023-01-09T11:23:11.077Z,980.80
2023-01-09T11:24:11.062Z,980.84
2023-01-09T11:25:11.054Z,980.88
2023-01-09T11:26:11.144Z,980.78
2023-01-09T11:27:11.038Z,980.79
2023-01-09T11:28:11.006Z,980.83
2023-01-09T11:29:11.004Z,980.85
2023-01-09T11:30:10.982Z,980.73
2023-01-09T11:31:11.019Z,980.79
2023-01-09T11:32:10.961Z,980.81
2023-01-09T11:33:10.942Z,980.80
2023-01-09T11:34:10.931Z,980.84
2023-01-09T11:35:10.919Z,980.88
2023-01-09T11:36:11.084Z,980.80
2023-01-09T11:37:10.960Z,980.85
2023-01-09T11:38:10.907Z,980.83
2023-01-09T11:39:10.864Z,980.74
2023-01-09T11:40:10.848Z,980.81
2023-01-09T11:41:10.837Z,980.83
2023-01-09T11:42:10.833Z,980.86
2023-01-09T11:43:10.812Z,980.80
2023-01-09T11:44:10.802Z,980.64
2023-01-09T11:45:10.787Z,980.72
2023-01-09T11:46:10.773Z,980.77
2023-01-09T11:47:10.759Z,980.71
2023-01-09T11:48:10.750Z,980.85
2023-01-09T11:49:10.733Z,980.85
2023-01-09T11:50:10.718Z,980.56
2023-01-09T11:51:10.707Z,980.61
2023-01-09T11:52:10.693Z,980.51
2023-01-09T11:53:10.686Z,980.62
2023-01-09T11:54:10.689Z,980.56
2023-01-09T11:55:10.658Z,980.69
2023-01-09T11:56:10.642Z,980.65
2023-01-09T11:57:10.629Z,980.64
2023-01-09T11:58:10.622Z,980.55
2023-01-09T11:59:10.606Z,980.83
2023-01-09T12:00:10.590Z,980.83
2023-01-09T12:01:10.582Z,980.71
2023-01-09T12:02:10.626Z,980.35
2023-01-09T12:03:10.619Z,980.32
2023-01-09T12:04:10.542Z,980.42
2023-01-09T12:05:10.552Z,980.50
2023-01-09T12:06:10.526Z,980.53
2023-01-09T12:07:10.500Z,980.58
2023-01-09T12:08:10.489Z,980.60
2023-01-09T12:09:10.473Z,980.55
2023-01-09T12:10:10.494Z,980.66
2023-01-09T12:11:10.449Z,980.70
2023-01-09T12:12:10.436Z,980.68
2023-01-09T12:13:10.422Z,980.52
2023-01-09T12:14:10.421Z,980.55
2023-01-09T12:15:10.401Z,980.66
2023-01-09T12:16:10.434Z,980.78
2023-01-09T12:17:10.374Z,980.56
2023-01-09T12:18:10.357Z,980.54
2023-01-09T12:19:10.348Z,980.46
2023-01-09T12:20:10.331Z,980.58
2023-01-09T12:21:10.323Z,980.61
2023-01-09T12:22:10.305Z,980.53
2023-01-09T12:23:10.294Z,980.64
2023-01-09T12:25:10.269Z,980.52
2023-01-09T12:26:10.283Z,980.57
2023-01-09T12:27:10.243Z,980.70
2023-01-09T12:28:10.228Z,980.65
2023-01-09T12:29:10.214Z,980.64
2023-01-09T12:30:10.215Z,980.68
2023-01-09T12:31:10.195Z,980.77